createdAt,value
2023-05-03T00:01:38.173Z,11.82
2023-05-03T00:04:05.123Z,11.81
2023-05-03T00:06:31.976Z,11.78
2023-05-03T00:08:58.772Z,11.78
2023-05-03T00:11:25.624Z,11.81
2023-05-03T00:13:52.588Z,11.76
2023-05-03T00:16:19.866Z,11.77
2023-05-03T00:18:49.419Z,11.78
2023-05-03T00:21:16.844Z,11.80
2023-05-03T00:23:43.652Z,11.77
2023-05-03T00:26:10.470Z,11.74
2023-05-03T00:28:37.571Z,11.71
2023-05-03T00:31:08.739Z,11.67
2023-05-03T00:33:36.191Z,11.63
2023-05-03T00:36:12.336Z,11.63
2023-05-03T00:38:39.584Z,11.61
2023-05-03T00:41:07.242Z,11.61
2023-05-03T00:43:35.634Z,11.59
2023-05-03T00:46:15.287Z,11.59
2023-05-03T00:48:43.373Z,11.51
2023-05-03T00:51:13.396Z,11.52
2023-05-03T00:53:40.825Z,11.52
2023-05-03T00:56:07.792Z,11.55
2023-05-03T00:58:36.635Z,11.53
2023-05-03T01:01:03.705Z,11.51
2023-05-03T01:03:36.917Z,11.52
2023-05-03T01:06:13.438Z,11.54
2023-05-03T01:08:44.710Z,11.52
2023-05-03T01:11:17.281Z,11.49
2023-05-03T01:13:47.788Z,11.49
2023-05-03T01:16:24.297Z,11.50
2023-05-03T01:18:52.513Z,11.49
2023-05-03T01:21:20.190Z,11.51
2023-05-03T01:23:52.245Z,11.50
2023-05-03T01:26:21.064Z,11.49
2023-05-03T01:28:48.019Z,11.46
2023-05-03T01:31:18.461Z,11.46
2023-05-03T01:33:49.555Z,11.46
2023-05-03T01:36:19.956Z,11.43
2023-05-03T01:38:47.747Z,11.42
2023-05-03T01:41:16.894Z,11.44
2023-05-03T01:43:44.300Z,11.45
2023-05-03T01:46:11.645Z,11.44
2023-05-03T01:48:38.637Z,11.41
2023-05-03T01:51:06.270Z,11.40
2023-05-03T01:53:33.085Z,11.41
2023-05-03T01:55:59.982Z,11.44
2023-05-03T01:58:26.820Z,11.40
2023-05-03T02:00:53.596Z,11.41
2023-05-03T02:03:21.269Z,11.42
2023-05-03T02:05:48.736Z,11.42
2023-05-03T02:08:16.896Z,11.44
2023-05-03T02:10:45.064Z,11.45
2023-05-03T02:13:11.951Z,11.46
2023-05-03T02:15:39.019Z,11.48
2023-05-03T02:18:05.912Z,11.49
2023-05-03T02:20:35.666Z,11.49
2023-05-03T02:23:02.428Z,11.50
2023-05-03T02:25:29.288Z,11.46
2023-05-03T02:27:56.345Z,11.46
2023-05-03T02:30:23.231Z,11.42
2023-05-03T02:32:50.076Z,11.41
2023-05-03T02:35:16.962Z,11.36
2023-05-03T02:37:44.025Z,11.35
2023-05-03T02:40:11.323Z,11.30
2023-05-03T02:42:38.101Z,11.25
2023-05-03T02:45:05.209Z,11.24
2023-05-03T02:47:32.041Z,11.23
2023-05-03T02:49:58.872Z,11.20
2023-05-03T02:52:25.857Z,11.15
2023-05-03T02:54:52.671Z,11.11
2023-05-03T02:57:19.458Z,11.12
2023-05-03T02:59:46.297Z,11.05
2023-05-03T03:02:13.059Z,11.01
2023-05-03T03:04:39.852Z,10.97
2023-05-03T03:07:06.758Z,10.92
2023-05-03T03:09:33.578Z,10.88
2023-05-03T03:12:03.539Z,10.86
2023-05-03T03:14:30.601Z,10.85
2023-05-03T03:16:58.513Z,10.81
2023-05-03T03:19:25.395Z,10.78
2023-05-03T03:21:52.180Z,10.70
2023-05-03T03:24:18.983Z,10.69
2023-05-03T03:26:45.810Z,10.66
2023-05-03T03:29:15.062Z,10.60
2023-05-03T03:31:41.908Z,10.59
2023-05-03T03:34:08.842Z,10.58
2023-05-03T03:36:37.382Z,10.59
2023-05-03T03:39:05.465Z,10.59
2023-05-03T03:41:33.222Z,10.59
2023-05-03T03:43:59.976Z,10.47
2023-05-03T03:46:26.805Z,10.45
2023-05-03T03:48:53.752Z,10.45
2023-05-03T03:51:20.674Z,10.43
2023-05-03T03:53:47.561Z,10.43
2023-05-03T03:56:14.371Z,10.46
2023-05-03T03:58:41.135Z,10.49
2023-05-03T04:01:08.025Z,10.48
2023-05-03T04:03:35.104Z,10.49
2023-05-03T04:06:02.226Z,10.49
2023-05-03T04:08:29.096Z,10.49
2023-05-03T04:10:56.176Z,10.53
2023-05-03T04:13:23.050Z,10.55
2023-05-03T04:15:50.011Z,10.56
2023-05-03T04:18:16.880Z,10.55
2023-05-03T04:20:44.172Z,10.55
2023-05-03T04:23:11.292Z,10.59
2023-05-03T04:25:39.250Z,10.58
2023-05-03T04:28:07.198Z,10.57
2023-05-03T04:30:34.693Z,10.57
2023-05-03T04:33:01.795Z,10.57
2023-05-03T04:35:29.160Z,10.57
2023-05-03T04:37:56.042Z,10.58
2023-05-03T04:40:23.117Z,10.59
2023-05-03T04:42:49.884Z,10.60
2023-05-03T04:45:16.940Z,10.57
2023-05-03T04:47:43.806Z,10.60
2023-05-03T04:50:11.491Z,10.58
2023-05-03T04:52:38.605Z,10.57
2023-05-03T04:55:05.847Z,10.60
2023-05-03T04:57:33.874Z,10.59
2023-05-03T05:00:01.543Z,10.60
2023-05-03T05:02:28.791Z,10.58
2023-05-03T05:04:55.712Z,10.59
2023-05-03T05:07:22.485Z,10.53
2023-05-03T05:09:49.394Z,10.55
2023-05-03T05:12:16.198Z,10.60
2023-05-03T05:14:42.950Z,10.56
2023-05-03T05:17:10.333Z,10.58
2023-05-03T05:19:37.306Z,10.56
2023-05-03T05:22:04.114Z,10.55
2023-05-03T05:24:31.065Z,10.56
2023-05-03T05:26:57.947Z,10.61
2023-05-03T05:29:25.152Z,10.62
2023-05-03T05:31:53.321Z,10.61
2023-05-03T05:34:20.278Z,10.61
2023-05-03T05:36:47.331Z,10.63
2023-05-03T05:39:14.268Z,10.63
2023-05-03T05:41:41.300Z,10.64
2023-05-03T05:44:08.362Z,10.59
2023-05-03T05:46:35.176Z,10.58
2023-05-03T05:49:02.066Z,10.57
2023-05-03T05:51:30.923Z,10.62
2023-05-03T05:53:58.143Z,10.68
2023-05-03T05:56:25.117Z,10.72
2023-05-03T05:58:52.019Z,10.70
2023-05-03T06:01:18.851Z,10.76
2023-05-03T06:03:45.870Z,10.85
2023-05-03T06:06:12.706Z,10.87
2023-05-03T06:08:39.635Z,10.92
2023-05-03T06:11:06.601Z,11.00
2023-05-03T06:13:34.902Z,11.07
2023-05-03T06:16:03.398Z,11.14
2023-05-03T06:18:30.234Z,11.15
2023-05-03T06:20:57.662Z,11.34
2023-05-03T06:23:24.611Z,11.65
2023-05-03T06:25:52.067Z,11.94
2023-05-03T06:28:19.200Z,12.15
2023-05-03T06:30:49.834Z,12.26
2023-05-03T06:33:16.801Z,12.50
2023-05-03T06:35:43.856Z,12.83
2023-05-03T06:38:12.357Z,12.93
2023-05-03T06:40:41.662Z,12.95
2023-05-03T06:43:08.600Z,12.84
2023-05-03T06:45:36.237Z,12.80
2023-05-03T06:48:03.158Z,12.80
2023-05-03T06:50:30.342Z,12.88
2023-05-03T06:52:57.380Z,13.01
2023-05-03T06:55:24.808Z,13.12
2023-05-03T06:57:52.829Z,13.11
2023-05-03T07:00:21.627Z,13.15
2023-05-03T07:02:48.970Z,13.22
2023-05-03T07:05:16.249Z,13.25
2023-05-03T07:07:43.264Z,13.37
2023-05-03T07:10:10.720Z,13.54
2023-05-03T07:12:37.650Z,13.62
2023-05-03T07:15:04.840Z,13.60
2023-05-03T07:17:32.206Z,13.66
2023-05-03T07:19:59.618Z,13.71
2023-05-03T07:22:28.002Z,13.79
2023-05-03T07:24:55.226Z,13.98
2023-05-03T07:27:22.247Z,13.95
2023-05-03T07:29:49.440Z,13.90
2023-05-03T07:32:17.302Z,13.82
2023-05-03T07:34:44.497Z,13.72
2023-05-03T07:37:11.924Z,13.86
2023-05-03T07:39:39.759Z,13.85
2023-05-03T07:42:07.330Z,13.95
2023-05-03T07:44:34.622Z,14.01
2023-05-03T07:47:02.039Z,14.05
2023-05-03T07:49:29.277Z,14.13
2023-05-03T07:51:56.540Z,14.86
2023-05-03T07:54:24.013Z,15.03
2023-05-03T07:56:52.813Z,15.08
2023-05-03T07:59:21.677Z,15.56
2023-05-03T08:01:48.739Z,15.72
2023-05-03T08:04:16.221Z,15.55
2023-05-03T08:06:43.590Z,15.27
2023-05-03T08:09:12.146Z,14.90
2023-05-03T08:11:40.971Z,14.70
2023-05-03T08:14:09.760Z,14.64
2023-05-03T08:16:37.636Z,14.68
2023-05-03T08:19:05.421Z,14.72
2023-05-03T08:21:33.765Z,14.87
2023-05-03T08:24:01.571Z,14.90
2023-05-03T08:26:30.242Z,14.91
2023-05-03T08:28:58.054Z,14.87
2023-05-03T08:31:25.238Z,14.92
2023-05-03T08:33:52.495Z,14.86
2023-05-03T08:36:19.654Z,14.76
2023-05-03T08:38:47.079Z,14.68
2023-05-03T08:41:19.407Z,14.62
2023-05-03T08:43:47.231Z,14.61
2023-05-03T08:46:15.173Z,14.72
2023-05-03T08:48:43.633Z,14.68
2023-05-03T08:51:11.191Z,14.62
2023-05-03T08:53:38.287Z,14.54
2023-05-03T08:56:11.291Z,14.52
2023-05-03T08:58:39.050Z,14.56
2023-05-03T09:01:07.029Z,14.64
2023-05-03T09:03:34.859Z,14.75
2023-05-03T09:06:05.476Z,14.91
2023-05-03T09:08:43.004Z,15.04
2023-05-03T09:11:20.712Z,15.22
2023-05-03T09:13:47.938Z,15.41
2023-05-03T09:16:32.701Z,15.36
2023-05-03T09:19:04.798Z,15.21
2023-05-03T09:21:32.076Z,15.21
2023-05-03T09:23:59.809Z,15.19
2023-05-03T09:26:37.573Z,15.24
2023-05-03T09:29:05.494Z,15.08
2023-05-03T09:31:33.441Z,15.04
2023-05-03T09:34:00.558Z,15.02
2023-05-03T09:36:28.235Z,14.94
2023-05-03T09:38:56.513Z,14.89
2023-05-03T09:41:27.362Z,14.83
2023-05-03T09:43:56.576Z,14.70
2023-05-03T09:46:26.215Z,14.81
2023-05-03T09:48:55.848Z,14.93
2023-05-03T09:51:23.304Z,15.06
2023-05-03T09:53:50.868Z,15.19
2023-05-03T09:56:21.180Z,15.29
2023-05-03T09:58:48.335Z,15.43
2023-05-03T10:01:16.638Z,15.52
2023-05-03T10:03:44.850Z,15.60
2023-05-03T10:06:22.433Z,15.74
2023-05-03T10:08:53.215Z,15.85
2023-05-03T10:11:20.285Z,15.96
2023-05-03T10:13:47.314Z,16.03
2023-05-03T10:16:18.262Z,16.07
2023-05-03T10:18:48.483Z,15.95
2023-05-03T10:21:19.323Z,15.65
2023-05-03T10:23:55.444Z,15.57
2023-05-03T10:26:22.899Z,15.49
2023-05-03T10:28:50.212Z,15.44
2023-05-03T10:31:26.664Z,15.45
2023-05-03T10:33:53.820Z,15.52
2023-05-03T10:36:21.069Z,15.60
2023-05-03T10:38:48.474Z,15.73
2023-05-03T10:41:24.712Z,15.81
2023-05-03T10:43:51.756Z,15.56
2023-05-03T10:46:28.544Z,15.65
2023-05-03T10:49:05.604Z,15.60
2023-05-03T10:51:37.601Z,15.62
2023-05-03T10:54:04.791Z,15.66
2023-05-03T10:56:31.980Z,15.63
2023-05-03T10:58:59.431Z,15.76
2023-05-03T11:01:28.747Z,15.84
2023-05-03T11:04:05.394Z,15.91
2023-05-03T11:06:34.860Z,15.93
2023-05-03T11:09:02.998Z,16.01
2023-05-03T11:11:30.259Z,16.01
2023-05-03T11:13:58.057Z,16.06
2023-05-03T11:16:25.792Z,16.08
2023-05-03T11:18:53.659Z,16.07
2023-05-03T11:21:21.813Z,16.10
2023-05-03T11:23:49.092Z,16.11
2023-05-03T11:26:26.704Z,16.18
2023-05-03T11:28:54.527Z,16.29
2023-05-03T11:31:22.022Z,16.34
2023-05-03T11:33:49.836Z,16.39
2023-05-03T11:36:17.361Z,16.42
2023-05-03T11:38:44.420Z,16.42
2023-05-03T11:41:14.693Z,16.45
2023-05-03T11:43:42.900Z,16.53
2023-05-03T11:46:10.655Z,16.50
2023-05-03T11:48:38.974Z,16.44
2023-05-03T11:51:08.069Z,16.43
2023-05-03T11:53:40.339Z,16.46
2023-05-03T11:56:19.648Z,16.43
2023-05-03T11:58:49.735Z,16.39
2023-05-03T12:01:16.910Z,16.47
2023-05-03T12:03:44.135Z,16.50
2023-05-03T12:06:13.680Z,16.47
2023-05-03T12:08:44.062Z,16.40
2023-05-03T12:11:13.792Z,16.44
2023-05-03T12:13:41.776Z,16.44
2023-05-03T12:16:18.567Z,16.46
2023-05-03T12:18:50.855Z,16.49
2023-05-03T12:23:52.065Z,16.47
2023-05-03T12:26:22.808Z,16.48
2023-05-03T12:28:50.169Z,16.53
2023-05-03T12:31:18.940Z,16.55
2023-05-03T12:34:06.216Z,16.65
2023-05-03T12:36:37.387Z,16.70
2023-05-03T12:39:09.339Z,16.74
2023-05-03T12:44:10.311Z,16.73
2023-05-03T12:46:38.942Z,16.66
2023-05-03T12:49:08.455Z,16.65
2023-05-03T12:51:36.312Z,16.67
2023-05-03T12:54:04.278Z,16.70
2023-05-03T12:56:32.946Z,16.75
2023-05-03T13:04:32.973Z,16.71
2023-05-03T13:06:48.160Z,16.68
2023-05-03T13:09:21.139Z,16.74
2023-05-03T13:11:50.240Z,16.76
2023-05-03T13:14:17.684Z,16.77
2023-05-03T13:16:45.956Z,16.76
2023-05-03T13:19:13.382Z,16.74
2023-05-03T13:21:40.485Z,16.70
2023-05-03T13:24:08.048Z,16.72
2023-05-03T13:26:35.567Z,16.71
2023-05-03T13:29:02.986Z,16.70
2023-05-03T13:31:30.669Z,16.75
2023-05-03T13:33:58.018Z,16.78
2023-05-03T13:36:25.275Z,16.70
2023-05-03T13:38:52.492Z,16.65
2023-05-03T13:41:20.127Z,16.62
2023-05-03T13:43:47.615Z,16.64
2023-05-03T13:46:14.825Z,16.64
2023-05-03T13:48:42.729Z,16.55
2023-05-03T13:51:10.350Z,16.55
2023-05-03T13:53:39.673Z,16.52
2023-05-03T13:56:25.204Z,16.50
2023-05-03T13:58:52.437Z,16.47
2023-05-03T14:01:19.738Z,16.45
2023-05-03T14:03:47.066Z,16.47
2023-05-03T14:06:14.407Z,16.51
2023-05-03T14:08:41.920Z,16.55
2023-05-03T14:11:16.573Z,16.56
2023-05-03T14:13:56.306Z,16.55
2023-05-03T14:16:36.445Z,16.61
2023-05-03T14:19:11.222Z,16.63
2023-05-03T14:21:38.820Z,16.63
2023-05-03T14:24:07.047Z,16.62
2023-05-03T14:26:34.761Z,16.61
2023-05-03T14:29:02.510Z,16.60
2023-05-03T14:31:29.724Z,16.63
2023-05-03T14:33:57.301Z,16.64
2023-05-03T14:36:24.803Z,16.67
2023-05-03T14:38:51.872Z,16.60
2023-05-03T14:41:19.178Z,16.65
2023-05-03T14:43:46.884Z,16.62
2023-05-03T14:46:14.527Z,16.58
2023-05-03T14:48:42.601Z,16.61
2023-05-03T14:51:09.780Z,16.61
2023-05-03T14:53:37.399Z,16.57
2023-05-03T14:56:04.951Z,16.56
2023-05-03T14:58:32.606Z,16.58
2023-05-03T15:01:00.349Z,16.60
2023-05-03T15:03:28.120Z,16.52
2023-05-03T15:05:56.711Z,16.51
2023-05-03T15:08:24.171Z,16.45
2023-05-03T15:10:51.854Z,16.50
2023-05-03T15:13:19.896Z,16.47
2023-05-03T15:15:47.859Z,16.43
2023-05-03T15:18:16.138Z,16.37
2023-05-03T15:20:44.119Z,16.37
2023-05-03T15:23:11.282Z,16.37
2023-05-03T15:25:38.659Z,16.36
2023-05-03T15:28:09.042Z,16.42
2023-05-03T15:30:36.837Z,16.48
2023-05-03T15:33:04.968Z,16.48
2023-05-03T15:35:33.288Z,16.40
2023-05-03T15:38:01.147Z,16.30
2023-05-03T15:40:28.660Z,16.23
2023-05-03T15:42:56.392Z,16.17
2023-05-03T15:45:24.877Z,16.15
2023-05-03T15:47:52.501Z,16.08
2023-05-03T15:50:19.650Z,16.08
2023-05-03T15:52:47.332Z,16.14
2023-05-03T15:55:14.812Z,16.18
2023-05-03T15:57:42.014Z,16.21
2023-05-03T16:00:10.105Z,16.20
2023-05-03T16:02:38.874Z,16.20
2023-05-03T16:05:06.297Z,16.27
2023-05-03T16:07:33.466Z,16.07
2023-05-03T16:10:00.666Z,16.14
2023-05-03T16:12:28.141Z,16.02
2023-05-03T16:14:56.775Z,15.84
2023-05-03T16:17:32.612Z,15.74
2023-05-03T16:20:07.146Z,15.73
2023-05-03T16:22:34.690Z,15.69
2023-05-03T16:25:02.376Z,15.69
2023-05-03T16:27:29.663Z,15.72
2023-05-03T16:29:58.876Z,15.72
2023-05-03T16:32:26.845Z,15.72
2023-05-03T16:34:54.423Z,15.83
2023-05-03T16:37:22.113Z,15.84
2023-05-03T16:39:49.521Z,15.87
2023-05-03T16:42:20.083Z,15.89
2023-05-03T16:44:47.961Z,15.87
2023-05-03T16:50:02.348Z,15.81
2023-05-03T16:52:30.197Z,15.78
2023-05-03T16:54:58.420Z,15.80
2023-05-03T16:57:25.371Z,15.76
2023-05-03T16:59:53.447Z,15.61
2023-05-03T17:02:22.383Z,15.50
2023-05-03T17:04:50.660Z,15.43
2023-05-03T17:07:19.689Z,15.35
2023-05-03T17:09:47.726Z,15.29
2023-05-03T17:12:14.907Z,15.27
2023-05-03T17:14:42.913Z,15.27
2023-05-03T17:17:10.801Z,15.26
2023-05-03T17:19:38.261Z,15.24
2023-05-03T17:22:05.767Z,15.25
2023-05-03T17:24:34.832Z,15.19
2023-05-03T17:27:02.244Z,15.07
2023-05-03T17:29:29.767Z,14.96
2023-05-03T17:31:57.329Z,14.94
2023-05-03T17:34:25.654Z,14.92
2023-05-03T17:36:59.113Z,14.94
2023-05-03T17:39:26.727Z,14.95
2023-05-03T17:41:56.242Z,14.99
2023-05-03T17:44:23.701Z,14.95
2023-05-03T17:46:52.180Z,14.90
2023-05-03T17:49:19.836Z,14.88
2023-05-03T17:51:47.277Z,14.90
2023-05-03T17:54:14.837Z,14.87
2023-05-03T17:56:44.468Z,14.79
2023-05-03T17:59:11.576Z,14.70
2023-05-03T18:01:39.726Z,14.71
2023-05-03T18:04:07.255Z,14.65
2023-05-03T18:06:34.612Z,14.65
2023-05-03T18:09:01.871Z,14.62
2023-05-03T18:11:29.193Z,14.58
2023-05-03T18:13:56.609Z,14.55
2023-05-03T18:16:23.953Z,14.53
2023-05-03T18:18:52.881Z,14.48
2023-05-03T18:21:22.276Z,14.44
2023-05-03T18:23:49.324Z,14.45
2023-05-03T18:26:16.442Z,14.44
2023-05-03T18:28:43.550Z,14.38
2023-05-03T18:31:12.181Z,14.28
2023-05-03T18:33:41.527Z,14.07
2023-05-03T18:36:12.274Z,14.04
2023-05-03T18:38:40.085Z,13.84
2023-05-03T18:41:18.077Z,13.87
2023-05-03T18:43:46.375Z,13.85
2023-05-03T18:46:22.822Z,13.85
2023-05-03T18:48:50.165Z,13.78
2023-05-03T18:51:18.722Z,13.76
2023-05-03T18:53:46.006Z,13.73
2023-05-03T18:56:12.965Z,13.73
2023-05-03T18:58:40.083Z,13.71
2023-05-03T19:01:07.713Z,13.65
2023-05-03T19:03:36.174Z,13.60
2023-05-03T19:06:09.506Z,13.57
2023-05-03T19:08:36.870Z,13.58
2023-05-03T19:11:07.526Z,13.57
2023-05-03T19:13:34.479Z,13.52
2023-05-03T19:16:01.413Z,13.48
2023-05-03T19:18:28.468Z,13.46
2023-05-03T19:20:56.872Z,13.32
2023-05-03T19:23:24.207Z,13.27
2023-05-03T19:25:51.268Z,13.24
2023-05-03T19:28:18.244Z,13.22
2023-05-03T19:30:46.205Z,13.20
2023-05-03T19:33:13.606Z,13.15
2023-05-03T19:35:40.994Z,13.12
2023-05-03T19:38:07.915Z,13.07
2023-05-03T19:40:34.891Z,13.01
2023-05-03T19:43:02.568Z,12.98
2023-05-03T19:45:29.592Z,12.99
2023-05-03T19:47:56.508Z,12.96
2023-05-03T19:50:24.187Z,12.94
2023-05-03T19:52:54.025Z,12.98
2023-05-03T19:55:21.142Z,12.98
2023-05-03T19:57:48.308Z,12.98
2023-05-03T20:00:16.153Z,12.94
2023-05-03T20:02:43.190Z,12.95
2023-05-03T20:05:10.460Z,12.92
2023-05-03T20:07:37.778Z,12.85
2023-05-03T20:10:05.804Z,12.86
2023-05-03T20:12:34.210Z,12.80
2023-05-03T20:15:01.182Z,12.75
2023-05-03T20:17:28.383Z,12.71
2023-05-03T20:19:55.372Z,12.63
2023-05-03T20:22:22.317Z,12.62
2023-05-03T20:24:50.661Z,12.64
2023-05-03T20:27:19.351Z,12.63
2023-05-03T20:29:46.407Z,12.61
2023-05-03T20:32:13.621Z,12.56
2023-05-03T20:34:40.629Z,12.49
2023-05-03T20:37:07.533Z,12.46
2023-05-03T20:39:35.684Z,12.44
2023-05-03T20:42:02.779Z,12.39
2023-05-03T20:44:29.671Z,12.37
2023-05-03T20:46:56.530Z,12.32
2023-05-03T20:49:23.464Z,12.24
2023-05-03T20:51:50.312Z,12.28
2023-05-03T20:54:17.362Z,12.29
2023-05-03T20:56:44.192Z,12.28
2023-05-03T20:59:11.074Z,12.26
2023-05-03T21:01:39.759Z,12.18
2023-05-03T21:04:07.211Z,12.17
2023-05-03T21:06:36.411Z,12.15
2023-05-03T21:09:03.475Z,12.12
2023-05-03T21:11:30.404Z,12.13
2023-05-03T21:13:58.974Z,12.13
2023-05-03T21:16:27.314Z,12.13
2023-05-03T21:18:54.244Z,12.13
2023-05-03T21:21:21.180Z,12.14
2023-05-03T21:23:48.143Z,12.12
2023-05-03T21:26:15.052Z,12.05
2023-05-03T21:28:41.951Z,12.05
2023-05-03T21:31:09.875Z,12.05
2023-05-03T21:33:36.818Z,12.06
2023-05-03T21:36:04.860Z,12.08
2023-05-03T21:38:31.721Z,12.09
2023-05-03T21:41:02.453Z,12.07
2023-05-03T21:43:29.240Z,12.05
2023-05-03T21:45:56.985Z,12.06
2023-05-03T21:48:24.724Z,12.06
2023-05-03T21:50:51.859Z,12.07
2023-05-03T21:53:18.775Z,12.05
2023-05-03T21:55:46.860Z,12.07
2023-05-03T21:58:14.258Z,12.04
2023-05-03T22:00:41.617Z,12.00
2023-05-03T22:03:08.599Z,11.98
2023-05-03T22:05:37.919Z,11.96
2023-05-03T22:08:06.215Z,11.96
2023-05-03T22:10:33.401Z,11.96
2023-05-03T22:13:00.625Z,11.93
2023-05-03T22:15:27.798Z,11.91
2023-05-03T22:17:54.768Z,11.89
2023-05-03T22:20:21.711Z,11.86
2023-05-03T22:22:48.651Z,11.79
2023-05-03T22:25:24.696Z,11.81
2023-05-03T22:27:52.274Z,11.79
2023-05-03T22:30:19.431Z,11.81
2023-05-03T22:32:47.220Z,11.81
2023-05-03T22:35:14.628Z,11.81
2023-05-03T22:37:41.916Z,11.79
2023-05-03T22:40:09.892Z,11.78
2023-05-03T22:42:37.198Z,11.77
2023-05-03T22:45:04.660Z,11.75
2023-05-03T22:47:31.576Z,11.68
2023-05-03T22:49:58.515Z,11.62
2023-05-03T22:52:25.398Z,11.57
2023-05-03T22:54:56.609Z,11.52
2023-05-03T22:57:23.458Z,11.51
2023-05-03T22:59:50.274Z,11.48
2023-05-03T23:02:18.036Z,11.47
2023-05-03T23:04:45.049Z,11.44
2023-05-03T23:07:11.810Z,11.39
2023-05-03T23:09:38.786Z,11.38
2023-05-03T23:12:05.722Z,11.37
2023-05-03T23:14:32.560Z,11.41
2023-05-03T23:16:59.401Z,11.42
2023-05-03T23:19:26.825Z,11.42
2023-05-03T23:21:53.736Z,11.48
2023-05-03T23:24:20.653Z,11.46
2023-05-03T23:26:47.506Z,11.47
2023-05-03T23:29:15.001Z,11.48
2023-05-03T23:31:42.323Z,11.46
2023-05-03T23:34:09.816Z,11.44
2023-05-03T23:36:36.685Z,11.41
2023-05-03T23:39:03.768Z,11.40
2023-05-03T23:41:30.655Z,11.37
2023-05-03T23:43:57.715Z,11.35
2023-05-03T23:46:24.506Z,11.34
2023-05-03T23:48:51.446Z,11.34
2023-05-03T23:51:18.467Z,11.34
2023-05-03T23:53:45.304Z,11.33
2023-05-03T23:56:12.062Z,11.34
2023-05-03T23:58:38.800Z,11.34
